createdAt,value
2018-06-04T00:00:41.115Z,1009.42
2018-06-04T00:01:41.284Z,1009.43
2018-06-04T00:02:41.036Z,1009.46
2018-06-04T00:03:41.067Z,1009.45
2018-06-04T00:04:47.418Z,1009.37
2018-06-04T00:05:43.068Z,1009.42
2018-06-04T00:06:41.053Z,1009.41
2018-06-04T00:07:41.016Z,1009.42
2018-06-04T00:08:42.837Z,1009.41
2018-06-04T00:09:41.073Z,1009.43
2018-06-04T00:10:41.072Z,1009.36
2018-06-04T00:11:41.065Z,1009.39
2018-06-04T00:12:41.084Z,1009.39
2018-06-04T00:13:41.078Z,1009.37
2018-06-04T00:14:41.090Z,1009.38
2018-06-04T00:15:41.085Z,1009.38
2018-06-04T00:16:41.065Z,1009.40
2018-06-04T00:17:41.115Z,1009.33
2018-06-04T00:18:41.083Z,1009.35
2018-06-04T00:19:41.089Z,1009.30
2018-06-04T00:20:41.073Z,1009.31
2018-06-04T00:21:41.105Z,1009.28
2018-06-04T00:22:47.427Z,1009.28
2018-06-04T00:23:42.094Z,1009.23
2018-06-04T00:24:41.116Z,1009.23
2018-06-04T00:25:43.112Z,1009.29
2018-06-04T00:26:41.115Z,1009.23
2018-06-04T00:27:41.112Z,1009.23
2018-06-04T00:28:42.094Z,1009.21
2018-06-04T00:29:41.056Z,1009.20
2018-06-04T00:30:42.047Z,1009.17
2018-06-04T00:31:41.052Z,1009.17
2018-06-04T00:32:41.060Z,1009.19
2018-06-04T00:33:41.093Z,1009.16
2018-06-04T00:35:42.791Z,1009.15
2018-06-04T00:36:41.077Z,1009.19
2018-06-04T00:37:41.136Z,1009.18
2018-06-04T00:38:43.079Z,1009.17
2018-06-04T00:39:40.665Z,1009.16
2018-06-04T00:40:55.411Z,1009.15
2018-06-04T00:41:55.299Z,1009.12
2018-06-04T00:42:43.110Z,1009.09
2018-06-04T00:43:41.075Z,1009.11
2018-06-04T00:44:43.127Z,1009.12
2018-06-04T00:45:41.112Z,1009.12
2018-06-04T00:46:41.115Z,1009.15
2018-06-04T00:47:41.109Z,1009.13
2018-06-04T00:48:41.079Z,1009.15
2018-06-04T00:49:41.391Z,1009.15
2018-06-04T00:50:41.102Z,1009.18
2018-06-04T00:51:41.121Z,1009.15
2018-06-04T00:52:41.113Z,1009.12
2018-06-04T00:53:41.113Z,1009.18
2018-06-04T00:54:41.106Z,1009.15
2018-06-04T00:55:41.113Z,1009.17
2018-06-04T00:56:41.141Z,1009.17
2018-06-04T00:57:41.076Z,1009.13
2018-06-04T00:58:41.109Z,1009.15
2018-06-04T00:59:41.071Z,1009.16
2018-06-04T01:00:41.074Z,1009.16
2018-06-04T01:01:41.321Z,1009.18
2018-06-04T01:02:41.079Z,1009.19
2018-06-04T01:03:46.975Z,1009.18
2018-06-04T01:04:41.335Z,1009.19
2018-06-04T01:05:41.328Z,1009.20
2018-06-04T01:06:41.311Z,1009.21
2018-06-04T01:07:41.080Z,1009.18
2018-06-04T01:08:41.108Z,1009.22
2018-06-04T01:09:41.093Z,1009.23
2018-06-04T01:10:41.313Z,1009.23
2018-06-04T01:11:41.358Z,1009.21
2018-06-04T01:12:41.318Z,1009.25
2018-06-04T01:13:41.326Z,1009.23
2018-06-04T01:14:41.330Z,1009.20
2018-06-04T01:15:41.353Z,1009.19
2018-06-04T01:16:41.329Z,1009.19
2018-06-04T01:17:41.106Z,1009.15
2018-06-04T01:18:41.321Z,1009.16
2018-06-04T01:19:42.147Z,1009.19
2018-06-04T01:20:41.345Z,1009.22
2018-06-04T01:21:41.316Z,1009.22
2018-06-04T01:22:41.164Z,1009.23
2018-06-04T01:23:41.343Z,1009.24
2018-06-04T01:24:41.179Z,1009.19
2018-06-04T01:25:41.324Z,1009.22
2018-06-04T01:26:41.321Z,1009.21
2018-06-04T01:27:41.320Z,1009.19
2018-06-04T01:28:41.319Z,1009.23
2018-06-04T01:29:41.325Z,1009.20
2018-06-04T01:30:41.326Z,1009.21
2018-06-04T01:31:41.317Z,1009.20
2018-06-04T01:32:41.318Z,1009.16
2018-06-04T01:33:41.328Z,1009.14
2018-06-04T01:34:41.108Z,1009.13
2018-06-04T01:35:41.338Z,1009.13
2018-06-04T01:36:41.350Z,1009.14
2018-06-04T01:37:41.122Z,1009.14
2018-06-04T01:38:41.058Z,1009.14
2018-06-04T01:39:41.323Z,1009.17
2018-06-04T01:40:41.104Z,1009.16
2018-06-04T01:41:41.373Z,1009.19
2018-06-04T01:42:41.101Z,1009.17
2018-06-04T01:43:41.329Z,1009.16
2018-06-04T01:44:41.323Z,1009.12
2018-06-04T01:45:41.345Z,1009.14
2018-06-04T01:46:41.351Z,1009.14
2018-06-04T01:47:41.350Z,1009.10
2018-06-04T01:48:41.344Z,1009.10
2018-06-04T01:49:41.346Z,1009.08
2018-06-04T01:50:47.327Z,1009.04
2018-06-04T01:51:41.162Z,1009.04
2018-06-04T01:52:41.330Z,1009.03
2018-06-04T01:53:41.202Z,1009.03
2018-06-04T01:54:41.413Z,1009.03
2018-06-04T01:55:41.329Z,1009.02
2018-06-04T01:56:41.334Z,1008.97
2018-06-04T01:57:41.329Z,1008.99
2018-06-04T01:58:41.332Z,1009.00
2018-06-04T01:59:41.680Z,1008.96
2018-06-04T02:00:41.653Z,1009.00
2018-06-04T02:01:41.219Z,1008.94
2018-06-04T02:02:41.153Z,1008.90
2018-06-04T02:03:43.137Z,1008.92
2018-06-04T02:04:43.988Z,1008.88
2018-06-04T02:05:43.158Z,1008.91
2018-06-04T02:06:41.144Z,1008.88
2018-06-04T02:07:41.144Z,1008.87
2018-06-04T02:08:43.066Z,1008.86
2018-06-04T02:09:41.195Z,1008.87
2018-06-04T02:10:41.131Z,1008.85
2018-06-04T02:11:41.145Z,1008.87
2018-06-04T02:12:41.327Z,1008.85
2018-06-04T02:13:41.201Z,1008.84
2018-06-04T02:15:41.213Z,1008.82
2018-06-04T02:16:41.196Z,1008.79
2018-06-04T02:17:41.114Z,1008.82
2018-06-04T02:18:41.145Z,1008.82
2018-06-04T02:19:41.112Z,1008.81
2018-06-04T02:20:41.093Z,1008.81
2018-06-04T02:21:41.112Z,1008.83
2018-06-04T02:22:41.137Z,1008.74
2018-06-04T02:23:41.217Z,1008.72
2018-06-04T02:24:41.189Z,1008.77
2018-06-04T02:25:41.209Z,1008.74
2018-06-04T02:26:41.154Z,1008.71
2018-06-04T02:27:42.969Z,1008.70
2018-06-04T02:28:41.150Z,1008.70
2018-06-04T02:29:41.155Z,1008.65
2018-06-04T02:30:41.167Z,1008.64
2018-06-04T02:31:41.188Z,1008.64
2018-06-04T02:32:41.254Z,1008.66
2018-06-04T02:33:41.286Z,1008.66
2018-06-04T02:34:41.163Z,1008.62
2018-06-04T02:35:41.276Z,1008.63
2018-06-04T02:36:41.207Z,1008.64
2018-06-04T02:37:43.338Z,1008.65
2018-06-04T02:38:41.242Z,1008.62
2018-06-04T02:39:41.300Z,1008.59
2018-06-04T02:40:41.277Z,1008.61
2018-06-04T02:41:41.274Z,1008.58
2018-06-04T02:42:41.132Z,1008.57
2018-06-04T02:43:41.340Z,1008.57
2018-06-04T02:44:41.141Z,1008.56
2018-06-04T02:45:41.150Z,1008.54
2018-06-04T02:46:41.148Z,1008.55
2018-06-04T02:47:41.207Z,1008.56
2018-06-04T02:48:41.191Z,1008.55
2018-06-04T02:49:41.151Z,1008.61
2018-06-04T02:51:41.152Z,1008.60
2018-06-04T02:52:41.203Z,1008.60
2018-06-04T02:53:41.193Z,1008.58
2018-06-04T02:54:41.205Z,1008.61
2018-06-04T02:55:41.215Z,1008.61
2018-06-04T02:56:41.213Z,1008.61
2018-06-04T02:57:41.224Z,1008.61
2018-06-04T02:58:41.206Z,1008.60
2018-06-04T02:59:41.214Z,1008.66
2018-06-04T03:00:41.213Z,1008.63
2018-06-04T03:01:41.277Z,1008.64
2018-06-04T03:02:41.250Z,1008.61
2018-06-04T03:03:41.269Z,1008.61
2018-06-04T03:04:41.278Z,1008.62
2018-06-04T03:05:41.263Z,1008.62
2018-06-04T03:06:40.984Z,1008.63
2018-06-04T03:07:41.144Z,1008.62
2018-06-04T03:08:41.144Z,1008.63
2018-06-04T03:09:41.147Z,1008.61
2018-06-04T03:10:41.143Z,1008.59
2018-06-04T03:11:41.173Z,1008.56
2018-06-04T03:12:41.153Z,1008.61
2018-06-04T03:13:41.207Z,1008.56
2018-06-04T03:14:41.225Z,1008.55
2018-06-04T03:15:41.158Z,1008.49
2018-06-04T03:16:41.240Z,1008.54
2018-06-04T03:17:41.680Z,1008.56
2018-06-04T03:18:41.277Z,1008.54
2018-06-04T03:19:43.350Z,1008.53
2018-06-04T03:20:41.080Z,1008.52
2018-06-04T03:21:41.132Z,1008.52
2018-06-04T03:22:41.144Z,1008.48
2018-06-04T03:23:41.079Z,1008.48
2018-06-04T03:25:42.927Z,1008.50
2018-06-04T03:26:41.143Z,1008.51
2018-06-04T03:27:41.160Z,1008.50
2018-06-04T03:28:41.154Z,1008.47
2018-06-04T03:29:41.143Z,1008.51
2018-06-04T03:30:41.138Z,1008.49
2018-06-04T03:31:41.149Z,1008.48
2018-06-04T03:32:41.205Z,1008.49
2018-06-04T03:33:41.174Z,1008.49
2018-06-04T03:34:41.161Z,1008.47
2018-06-04T03:35:42.368Z,1008.51
2018-06-04T03:36:41.269Z,1008.50
2018-06-04T03:37:41.190Z,1008.48
2018-06-04T03:38:41.212Z,1008.47
2018-06-04T03:39:41.209Z,1008.51
2018-06-04T03:40:41.235Z,1008.51
2018-06-04T03:41:41.268Z,1008.50
2018-06-04T03:42:41.187Z,1008.45
2018-06-04T03:43:41.217Z,1008.46
2018-06-04T03:44:41.214Z,1008.46
2018-06-04T03:45:41.290Z,1008.44
2018-06-04T03:46:41.090Z,1008.49
2018-06-04T03:47:41.090Z,1008.48
2018-06-04T03:48:41.099Z,1008.50
2018-06-04T03:49:41.090Z,1008.52
2018-06-04T03:50:41.114Z,1008.54
2018-06-04T03:51:41.137Z,1008.51
2018-06-04T03:52:41.153Z,1008.50
2018-06-04T03:53:41.128Z,1008.51
2018-06-04T03:54:41.139Z,1008.51
2018-06-04T03:55:41.120Z,1008.53
2018-06-04T03:56:41.130Z,1008.49
2018-06-04T03:57:41.181Z,1008.50
2018-06-04T03:58:41.153Z,1008.52
2018-06-04T03:59:41.186Z,1008.53
2018-06-04T04:00:41.157Z,1008.53
2018-06-04T04:01:41.261Z,1008.52
2018-06-04T04:02:41.245Z,1008.51
2018-06-04T04:03:41.218Z,1008.50
2018-06-04T04:04:41.219Z,1008.49
2018-06-04T04:05:41.374Z,1008.47
2018-06-04T04:06:41.295Z,1008.46
2018-06-04T04:07:41.457Z,1008.45
2018-06-04T04:08:41.300Z,1008.49
2018-06-04T04:09:41.228Z,1008.48
2018-06-04T04:10:41.178Z,1008.50
2018-06-04T04:11:41.281Z,1008.49
2018-06-04T04:12:41.867Z,1008.52
2018-06-04T04:13:41.345Z,1008.50
2018-06-04T04:14:41.349Z,1008.54
2018-06-04T04:15:41.355Z,1008.52
2018-06-04T04:16:41.382Z,1008.54
2018-06-04T04:17:41.336Z,1008.51
2018-06-04T04:18:41.341Z,1008.50
2018-06-04T04:19:42.839Z,1008.57
2018-06-04T04:20:41.250Z,1008.53
2018-06-04T04:21:41.241Z,1008.53
2018-06-04T04:22:41.213Z,1008.53
2018-06-04T04:23:41.247Z,1008.53
2018-06-04T04:24:41.238Z,1008.51
2018-06-04T04:25:41.237Z,1008.53
2018-06-04T04:27:42.031Z,1008.50
2018-06-04T04:28:42.250Z,1008.51
2018-06-04T04:29:41.940Z,1008.51
2018-06-04T04:30:42.403Z,1008.52
2018-06-04T04:31:42.913Z,1008.53
2018-06-04T04:32:41.608Z,1008.53
2018-06-04T04:33:41.297Z,1008.47
2018-06-04T04:34:41.314Z,1008.44
2018-06-04T04:35:42.274Z,1008.47
2018-06-04T04:36:41.331Z,1008.43
2018-06-04T04:37:41.361Z,1008.42
2018-06-04T04:38:47.613Z,1008.45
2018-06-04T04:39:48.554Z,1008.43
2018-06-04T04:40:41.467Z,1008.45
2018-06-04T04:41:41.376Z,1008.42
2018-06-04T04:42:41.387Z,1008.45
2018-06-04T04:43:42.923Z,1008.40
2018-06-04T04:44:41.389Z,1008.44
2018-06-04T04:45:41.393Z,1008.40
2018-06-04T04:46:41.269Z,1008.39
2018-06-04T04:47:41.513Z,1008.43
2018-06-04T04:48:48.371Z,1008.45
2018-06-04T04:49:42.729Z,1008.41
2018-06-04T04:50:45.733Z,1008.45
2018-06-04T04:51:41.212Z,1008.45
2018-06-04T04:52:42.579Z,1008.51
2018-06-04T04:53:41.886Z,1008.45
2018-06-04T04:54:43.312Z,1008.47
2018-06-04T04:55:41.311Z,1008.46
2018-06-04T04:56:42.741Z,1008.48
2018-06-04T04:57:41.229Z,1008.46
2018-06-04T04:58:41.480Z,1008.45
2018-06-04T04:59:41.337Z,1008.42
2018-06-04T05:00:43.376Z,1008.47
2018-06-04T05:01:41.029Z,1008.47
2018-06-04T05:02:43.391Z,1008.45
2018-06-04T05:03:43.749Z,1008.44
2018-06-04T05:04:41.628Z,1008.47
2018-06-04T05:05:41.852Z,1008.40
2018-06-04T05:06:41.307Z,1008.49
2018-06-04T05:07:41.355Z,1008.47
2018-06-04T05:08:41.259Z,1008.47
2018-06-04T05:09:41.250Z,1008.48
2018-06-04T05:10:41.432Z,1008.48
2018-06-04T05:11:41.304Z,1008.48
2018-06-04T05:12:41.340Z,1008.49
2018-06-04T05:13:41.318Z,1008.49
2018-06-04T05:14:45.403Z,1008.44
2018-06-04T05:15:41.248Z,1008.46
2018-06-04T05:16:41.441Z,1008.47
2018-06-04T05:17:41.013Z,1008.49
2018-06-04T05:18:41.751Z,1008.52
2018-06-04T05:19:41.255Z,1008.50
2018-06-04T05:20:42.930Z,1008.50
2018-06-04T05:21:41.759Z,1008.51
2018-06-04T05:22:41.760Z,1008.49
2018-06-04T05:23:41.437Z,1008.48
2018-06-04T05:24:41.321Z,1008.43
2018-06-04T05:25:42.200Z,1008.47
2018-06-04T05:26:45.426Z,1008.45
2018-06-04T05:27:47.575Z,1008.46
2018-06-04T05:28:41.397Z,1008.47
2018-06-04T05:29:41.790Z,1008.49
2018-06-04T05:30:42.781Z,1008.48
2018-06-04T05:31:42.931Z,1008.50
2018-06-04T05:32:41.842Z,1008.50
2018-06-04T05:33:41.303Z,1008.49
2018-06-04T05:35:43.441Z,1008.51
2018-06-04T05:36:41.453Z,1008.48
2018-06-04T05:37:41.772Z,1008.47
2018-06-04T05:38:49.436Z,1008.53
2018-06-04T05:39:41.310Z,1008.49
2018-06-04T05:40:43.540Z,1008.52
2018-06-04T05:41:41.999Z,1008.50
2018-06-04T05:42:41.455Z,1008.51
2018-06-04T05:43:41.909Z,1008.49
2018-06-04T05:44:42.405Z,1008.57
2018-06-04T05:45:42.072Z,1008.54
2018-06-04T05:46:41.482Z,1008.53
2018-06-04T05:47:41.263Z,1008.54
2018-06-04T05:48:41.408Z,1008.56
2018-06-04T05:49:42.760Z,1008.54
2018-06-04T05:50:41.948Z,1008.54
2018-06-04T05:51:41.819Z,1008.53
2018-06-04T05:52:41.425Z,1008.57
2018-06-04T05:53:41.407Z,1008.54
2018-06-04T05:54:41.396Z,1008.49
2018-06-04T05:55:41.444Z,1008.49
2018-06-04T05:56:42.084Z,1008.46
2018-06-04T05:57:42.368Z,1008.46
2018-06-04T05:58:43.753Z,1008.43
2018-06-04T05:59:41.463Z,1008.45
2018-06-04T06:00:41.769Z,1008.44
2018-06-04T06:01:41.883Z,1008.43
2018-06-04T06:02:43.784Z,1008.39
2018-06-04T06:03:41.429Z,1008.40
2018-06-04T06:04:43.769Z,1008.38
2018-06-04T06:05:44.444Z,1008.36
2018-06-04T06:06:41.731Z,1008.38
2018-06-04T06:08:41.313Z,1008.34
2018-06-04T06:09:41.771Z,1008.35
2018-06-04T06:10:41.920Z,1008.36
2018-06-04T06:11:41.266Z,1008.36
2018-06-04T06:12:42.031Z,1008.36
2018-06-04T06:13:41.913Z,1008.36
2018-06-04T06:14:41.949Z,1008.30
2018-06-04T06:15:41.401Z,1008.32
2018-06-04T06:16:41.446Z,1008.34
2018-06-04T06:17:41.617Z,1008.34
2018-06-04T06:18:41.783Z,1008.35
2018-06-04T06:19:43.451Z,1008.32
2018-06-04T06:20:42.014Z,1008.33
2018-06-04T06:21:41.734Z,1008.38
2018-06-04T06:22:41.434Z,1008.35
2018-06-04T06:24:47.915Z,1008.31
2018-06-04T06:25:41.566Z,1008.33
2018-06-04T06:26:41.930Z,1008.31
2018-06-04T06:27:41.459Z,1008.34
2018-06-04T06:28:41.807Z,1008.32
2018-06-04T06:29:41.836Z,1008.30
2018-06-04T06:30:41.422Z,1008.33
2018-06-04T06:31:41.483Z,1008.32
2018-06-04T06:32:41.880Z,1008.30
2018-06-04T06:33:41.405Z,1008.27
2018-06-04T06:34:41.393Z,1008.33
2018-06-04T06:35:41.295Z,1008.26
2018-06-04T06:36:41.723Z,1008.27
2018-06-04T06:37:41.544Z,1008.26
2018-06-04T06:38:41.965Z,1008.29
2018-06-04T06:39:41.466Z,1008.26
2018-06-04T06:40:41.969Z,1008.28
2018-06-04T06:41:41.437Z,1008.27
2018-06-04T06:42:41.453Z,1008.30
2018-06-04T06:43:41.731Z,1008.26
2018-06-04T06:44:41.725Z,1008.28
2018-06-04T06:45:41.973Z,1008.27
2018-06-04T06:46:42.269Z,1008.27
2018-06-04T06:47:41.478Z,1008.24
2018-06-04T06:48:42.016Z,1008.27
2018-06-04T06:49:43.935Z,1008.21
2018-06-04T06:50:41.829Z,1008.23
2018-06-04T06:51:41.771Z,1008.21
2018-06-04T06:52:42.012Z,1008.23
2018-06-04T06:53:42.301Z,1008.24
2018-06-04T06:54:41.930Z,1008.23
2018-06-04T06:55:42.427Z,1008.20
2018-06-04T06:56:44.806Z,1008.18
2018-06-04T06:57:42.212Z,1008.18
2018-06-04T06:58:41.812Z,1008.18
2018-06-04T06:59:41.955Z,1008.22
2018-06-04T07:00:42.037Z,1008.18
2018-06-04T07:01:41.769Z,1008.21
2018-06-04T07:02:42.019Z,1008.20
2018-06-04T07:03:42.047Z,1008.18
2018-06-04T07:04:43.012Z,1008.19
2018-06-04T07:05:41.947Z,1008.23
2018-06-04T07:06:45.932Z,1008.21
2018-06-04T07:07:42.426Z,1008.24
2018-06-04T07:08:41.091Z,1008.25
2018-06-04T07:09:41.982Z,1008.25
2018-06-04T07:10:41.686Z,1008.21
2018-06-04T07:12:41.752Z,1008.24
2018-06-04T07:13:42.031Z,1008.21
2018-06-04T07:14:43.478Z,1008.26
2018-06-04T07:15:42.274Z,1008.24
2018-06-04T07:16:41.446Z,1008.23
2018-06-04T07:17:41.907Z,1008.26
2018-06-04T07:18:41.672Z,1008.25
2018-06-04T07:19:42.004Z,1008.26
2018-06-04T07:20:41.197Z,1008.22
2018-06-04T07:21:42.015Z,1008.23
2018-06-04T07:22:41.241Z,1008.23
2018-06-04T07:23:46.282Z,1008.24
2018-06-04T07:24:41.491Z,1008.23
2018-06-04T07:25:41.941Z,1008.25
2018-06-04T07:26:43.988Z,1008.23
2018-06-04T07:27:43.503Z,1008.22
2018-06-04T07:28:42.048Z,1008.23
2018-06-04T07:29:43.487Z,1008.24
2018-06-04T07:30:41.195Z,1008.24
2018-06-04T07:31:41.989Z,1008.24
2018-06-04T07:32:41.882Z,1008.23
2018-06-04T07:33:41.950Z,1008.24
2018-06-04T07:34:41.449Z,1008.27
2018-06-04T07:35:42.017Z,1008.27
2018-06-04T07:36:42.288Z,1008.29
2018-06-04T07:37:41.740Z,1008.24
2018-06-04T07:38:42.040Z,1008.25
2018-06-04T07:39:41.987Z,1008.23
2018-06-04T07:40:41.945Z,1008.24
2018-06-04T07:41:44.003Z,1008.23
2018-06-04T07:42:42.301Z,1008.25
2018-06-04T07:43:41.950Z,1008.21
2018-06-04T07:44:43.582Z,1008.23
2018-06-04T07:46:41.491Z,1008.27
2018-06-04T07:47:42.286Z,1008.26
2018-06-04T07:48:41.783Z,1008.29
2018-06-04T07:49:41.998Z,1008.27
2018-06-04T07:50:41.499Z,1008.28
2018-06-04T07:51:43.579Z,1008.29
2018-06-04T07:52:42.084Z,1008.31
2018-06-04T07:53:44.714Z,1008.24
2018-06-04T07:54:42.541Z,1008.27
2018-06-04T07:55:41.501Z,1008.28
2018-06-04T07:56:41.451Z,1008.28
2018-06-04T07:57:42.449Z,1008.29
2018-06-04T07:58:41.450Z,1008.23
2018-06-04T07:59:41.529Z,1008.23
2018-06-04T08:00:42.720Z,1008.24
2018-06-04T08:01:41.807Z,1008.21
2018-06-04T08:02:41.278Z,1008.23
2018-06-04T08:03:42.308Z,1008.22
2018-06-04T08:04:41.282Z,1008.23
2018-06-04T08:05:42.288Z,1008.22
2018-06-04T08:06:41.485Z,1008.20
2018-06-04T08:07:42.280Z,1008.14
2018-06-04T08:08:42.089Z,1008.11
2018-06-04T08:09:41.961Z,1008.13
2018-06-04T08:10:42.108Z,1008.12
2018-06-04T08:11:42.522Z,1008.15
2018-06-04T08:12:42.002Z,1008.12
2018-06-04T08:13:41.968Z,1008.08
2018-06-04T08:14:42.298Z,1008.08
2018-06-04T08:15:42.009Z,1008.05
2018-06-04T08:16:42.046Z,1008.06
2018-06-04T08:17:42.468Z,1008.06
2018-06-04T08:18:41.471Z,1008.09
2018-06-04T08:19:42.027Z,1008.10
2018-06-04T08:20:41.970Z,1008.03
2018-06-04T08:21:41.984Z,1008.00
2018-06-04T08:22:42.323Z,1008.08
2018-06-04T08:23:42.037Z,1008.04
2018-06-04T08:24:42.062Z,1008.04
2018-06-04T08:25:41.470Z,1008.04
2018-06-04T08:26:44.567Z,1008.03
2018-06-04T08:27:41.966Z,1008.03
2018-06-04T08:28:42.011Z,1008.03
2018-06-04T08:29:41.805Z,1008.03
2018-06-04T08:30:42.298Z,1008.05
2018-06-04T08:31:41.987Z,1008.08
2018-06-04T08:32:42.357Z,1008.05
2018-06-04T08:33:42.317Z,1008.04
2018-06-04T08:34:42.059Z,1008.03
2018-06-04T08:35:41.465Z,1008.07
2018-06-04T08:36:41.811Z,1008.06
2018-06-04T08:37:42.019Z,1008.06
2018-06-04T08:38:41.506Z,1008.05
2018-06-04T08:39:41.807Z,1008.08
2018-06-04T08:40:42.330Z,1008.03
2018-06-04T08:41:41.792Z,1008.01
2018-06-04T08:43:42.019Z,1008.00
2018-06-04T08:44:41.881Z,1008.00
2018-06-04T08:45:42.120Z,1008.02
2018-06-04T08:46:42.015Z,1008.02
2018-06-04T08:47:42.076Z,1007.99
2018-06-04T08:48:42.024Z,1008.02
2018-06-04T08:49:42.350Z,1007.98
2018-06-04T08:50:41.345Z,1007.94
2018-06-04T08:51:41.760Z,1007.96
2018-06-04T08:52:42.018Z,1007.95
2018-06-04T08:53:42.018Z,1007.96
2018-06-04T08:54:49.412Z,1007.97
2018-06-04T08:55:50.445Z,1007.95
2018-06-04T08:56:41.973Z,1007.97
2018-06-04T08:57:41.980Z,1007.91
2018-06-04T08:58:41.365Z,1007.95
2018-06-04T08:59:41.785Z,1007.91
2018-06-04T09:00:42.027Z,1007.87
2018-06-04T09:01:44.325Z,1007.87
2018-06-04T09:02:42.026Z,1007.88
2018-06-04T09:03:41.834Z,1007.86
2018-06-04T09:04:42.044Z,1007.87
2018-06-04T09:05:42.059Z,1007.89
2018-06-04T09:06:42.237Z,1007.92
2018-06-04T09:07:42.027Z,1007.91
2018-06-04T09:08:41.999Z,1007.91
2018-06-04T09:09:41.991Z,1007.92
2018-06-04T09:10:42.355Z,1007.95
2018-06-04T09:11:42.481Z,1007.96
2018-06-04T09:12:41.979Z,1007.92
2018-06-04T09:13:42.326Z,1007.95
2018-06-04T09:14:42.321Z,1007.96
2018-06-04T09:15:42.540Z,1007.96
2018-06-04T09:16:42.027Z,1007.94
2018-06-04T09:17:41.801Z,1007.93
2018-06-04T09:18:42.109Z,1007.97
2018-06-04T09:19:41.889Z,1007.90
2018-06-04T09:20:41.787Z,1007.92
2018-06-04T09:21:41.873Z,1007.91
2018-06-04T09:22:41.916Z,1007.86
2018-06-04T09:23:41.784Z,1007.88
2018-06-04T09:24:41.493Z,1007.87
2018-06-04T09:25:45.936Z,1007.91
2018-06-04T09:26:42.801Z,1007.90
2018-06-04T09:27:43.710Z,1007.93
2018-06-04T09:28:41.777Z,1007.90
2018-06-04T09:29:42.062Z,1007.95
2018-06-04T09:30:42.527Z,1007.93
2018-06-04T09:31:44.379Z,1007.89
2018-06-04T09:32:42.446Z,1007.87
2018-06-04T09:33:41.852Z,1007.92
2018-06-04T09:34:42.063Z,1007.91
2018-06-04T09:35:42.073Z,1007.90
2018-06-04T09:36:41.868Z,1007.88
2018-06-04T09:37:42.061Z,1007.88
2018-06-04T09:38:42.341Z,1007.88
2018-06-04T09:39:41.937Z,1007.90
2018-06-04T09:40:42.047Z,1007.89
2018-06-04T09:41:41.984Z,1007.92
2018-06-04T09:42:41.992Z,1007.94
2018-06-04T09:43:42.361Z,1007.92
2018-06-04T09:44:42.125Z,1007.93
2018-06-04T09:45:42.908Z,1007.90
2018-06-04T09:46:42.002Z,1007.91
2018-06-04T09:47:42.055Z,1007.91
2018-06-04T09:48:42.521Z,1007.90
2018-06-04T09:49:41.878Z,1007.91
2018-06-04T09:50:42.095Z,1007.89
2018-06-04T09:51:42.832Z,1007.93
2018-06-04T09:52:42.278Z,1007.87
2018-06-04T09:53:41.994Z,1007.90
2018-06-04T09:54:42.056Z,1007.85
2018-06-04T09:55:42.343Z,1007.85
2018-06-04T09:56:42.021Z,1007.88
2018-06-04T09:57:42.555Z,1007.90
2018-06-04T09:58:42.048Z,1007.92
2018-06-04T09:59:42.079Z,1007.91
2018-06-04T10:00:43.617Z,1007.91
2018-06-04T10:01:44.063Z,1007.91
2018-06-04T10:02:42.501Z,1007.90
2018-06-04T10:03:41.929Z,1007.91
2018-06-04T10:04:42.403Z,1007.85
2018-06-04T10:05:43.226Z,1007.84
2018-06-04T10:06:44.088Z,1007.84
2018-06-04T10:07:42.517Z,1007.83
2018-06-04T10:08:42.424Z,1007.86
2018-06-04T10:09:43.369Z,1007.90
2018-06-04T10:10:42.001Z,1007.83
2018-06-04T10:11:42.735Z,1007.84
2018-06-04T10:14:50.504Z,1007.83
2018-06-04T10:15:44.311Z,1007.81
2018-06-04T10:16:43.983Z,1007.80
2018-06-04T10:17:44.517Z,1007.78
2018-06-04T10:18:42.559Z,1007.77
2018-06-04T10:19:44.054Z,1007.81
2018-06-04T10:20:42.054Z,1007.80
2018-06-04T10:21:42.587Z,1007.80
2018-06-04T10:22:43.464Z,1007.78
2018-06-04T10:23:42.499Z,1007.79
2018-06-04T10:24:45.273Z,1007.77
2018-06-04T10:25:44.021Z,1007.82
2018-06-04T10:26:42.623Z,1007.84
2018-06-04T10:27:42.571Z,1007.82
2018-06-04T10:28:42.592Z,1007.84
2018-06-04T10:29:42.019Z,1007.84
2018-06-04T10:30:49.574Z,1007.83
2018-06-04T10:31:42.568Z,1007.80
2018-06-04T10:32:50.800Z,1007.82
2018-06-04T10:34:05.551Z,1007.83
2018-06-04T10:34:43.102Z,1007.84
2018-06-04T10:35:42.350Z,1007.80
2018-06-04T10:36:50.723Z,1007.82
2018-06-04T10:37:49.057Z,1007.83
2018-06-04T10:38:43.336Z,1007.80
2018-06-04T10:39:44.272Z,1007.82
2018-06-04T10:41:43.760Z,1007.84
2018-06-04T10:42:43.286Z,1007.79
2018-06-04T10:43:42.796Z,1007.83
2018-06-04T10:44:42.530Z,1007.82
2018-06-04T10:45:44.581Z,1007.82
2018-06-04T10:46:42.582Z,1007.83
2018-06-04T10:47:43.612Z,1007.84
2018-06-04T10:48:42.069Z,1007.89
2018-06-04T10:49:42.952Z,1007.92
2018-06-04T10:50:44.632Z,1007.87
2018-06-04T10:51:42.460Z,1007.93
2018-06-04T10:52:42.535Z,1007.90
2018-06-04T10:53:48.010Z,1007.91
2018-06-04T10:54:49.030Z,1007.89
2018-06-04T10:55:42.587Z,1007.97
2018-06-04T10:56:42.440Z,1007.93
2018-06-04T10:57:44.287Z,1007.92
2018-06-04T10:58:42.607Z,1007.93
2018-06-04T10:59:42.535Z,1007.96
2018-06-04T11:00:42.379Z,1007.89
2018-06-04T11:01:42.637Z,1007.93
2018-06-04T11:02:45.072Z,1007.92
2018-06-04T11:03:42.898Z,1007.89
2018-06-04T11:04:42.884Z,1007.84
2018-06-04T11:05:42.454Z,1007.92
2018-06-04T11:06:42.460Z,1007.88
2018-06-04T11:07:42.039Z,1007.87
2018-06-04T11:08:49.113Z,1007.85
2018-06-04T11:09:49.175Z,1007.88
2018-06-04T11:10:41.966Z,1007.90
2018-06-04T11:11:44.932Z,1007.94
2018-06-04T11:12:44.296Z,1007.94
2018-06-04T11:13:44.824Z,1007.96
2018-06-04T11:14:44.858Z,1007.94
2018-06-04T11:15:42.543Z,1007.99
2018-06-04T11:16:42.238Z,1007.94
2018-06-04T11:17:42.050Z,1007.97
2018-06-04T11:18:49.455Z,1007.93
2018-06-04T11:19:43.690Z,1007.90
2018-06-04T11:20:44.391Z,1007.92
2018-06-04T11:21:42.890Z,1007.89
2018-06-04T11:23:03.377Z,1007.90
2018-06-04T11:23:42.391Z,1007.90
2018-06-04T11:24:42.634Z,1007.95
2018-06-04T11:25:59.271Z,1007.94
2018-06-04T11:27:05.984Z,1007.97
2018-06-04T11:27:44.292Z,1007.96
2018-06-04T11:28:57.627Z,1007.96
2018-06-04T11:29:42.696Z,1007.98
2018-06-04T11:30:43.575Z,1007.94
2018-06-04T11:31:49.150Z,1007.87
2018-06-04T11:32:46.545Z,1007.88
2018-06-04T11:34:18.089Z,1007.91
2018-06-04T11:34:41.042Z,1007.87
2018-06-04T11:35:43.531Z,1007.84
2018-06-04T11:37:42.384Z,1007.85
2018-06-04T11:38:42.558Z,1007.77
2018-06-04T11:39:42.673Z,1007.85
2018-06-04T11:40:42.980Z,1007.83
2018-06-04T11:41:42.560Z,1007.84
2018-06-04T11:42:43.013Z,1007.86
2018-06-04T11:43:42.109Z,1007.88
2018-06-04T11:44:42.512Z,1007.82
2018-06-04T11:45:42.327Z,1007.83
2018-06-04T11:46:43.559Z,1007.86
2018-06-04T11:47:42.064Z,1007.89
2018-06-04T11:48:42.381Z,1007.83
2018-06-04T11:49:42.568Z,1007.80
2018-06-04T11:50:42.619Z,1007.82
2018-06-04T11:51:42.544Z,1007.77
2018-06-04T11:52:43.078Z,1007.75
2018-06-04T11:53:42.544Z,1007.70
2018-06-04T11:54:44.628Z,1007.73
2018-06-04T11:55:44.611Z,1007.75
2018-06-04T11:56:42.941Z,1007.73
2018-06-04T11:57:42.895Z,1007.75
2018-06-04T11:58:42.942Z,1007.71
2018-06-04T11:59:42.925Z,1007.73
2018-06-04T12:00:43.157Z,1007.76
2018-06-04T12:01:45.038Z,1007.79
2018-06-04T12:02:42.949Z,1007.77
2018-06-04T12:03:42.587Z,1007.75
2018-06-04T12:04:42.584Z,1007.68
2018-06-04T12:05:42.921Z,1007.74
2018-06-04T12:06:42.517Z,1007.80
2018-06-04T12:07:42.649Z,1007.76
2018-06-04T12:08:43.116Z,1007.79
2018-06-04T12:09:44.738Z,1007.78
2018-06-04T12:10:43.122Z,1007.77
2018-06-04T12:11:43.187Z,1007.79
2018-06-04T12:12:42.289Z,1007.80
2018-06-04T12:13:43.574Z,1007.74
2018-06-04T12:14:42.660Z,1007.75
2018-06-04T12:15:45.307Z,1007.73
2018-06-04T12:16:43.141Z,1007.72
2018-06-04T12:17:43.126Z,1007.69
2018-06-04T12:18:43.179Z,1007.64
2018-06-04T12:19:42.915Z,1007.69
2018-06-04T12:20:43.119Z,1007.71